createdAt,value
2018-02-06T00:00:40.728Z,99.90
2018-02-06T00:03:10.595Z,99.90
2018-02-06T00:05:39.744Z,99.90
2018-02-06T00:08:09.044Z,99.90
2018-02-06T00:10:39.400Z,99.90
2018-02-06T00:13:08.719Z,99.90
2018-02-06T00:15:37.658Z,99.90
2018-02-06T00:18:06.959Z,99.90
2018-02-06T00:20:36.143Z,99.90
2018-02-06T00:23:04.943Z,99.90
2018-02-06T00:25:33.923Z,99.90
2018-02-06T00:28:03.026Z,99.90
2018-02-06T00:30:32.128Z,99.90
2018-02-06T00:33:01.148Z,99.90
2018-02-06T00:35:30.652Z,99.90
2018-02-06T00:38:00.140Z,99.90
2018-02-06T00:40:28.922Z,99.90
2018-02-06T00:42:58.302Z,99.90
2018-02-06T00:45:27.736Z,99.90
2018-02-06T00:47:56.830Z,99.90
2018-02-06T00:50:26.128Z,99.90
2018-02-06T00:52:55.120Z,99.90
2018-02-06T00:55:24.702Z,99.90
2018-02-06T00:57:53.616Z,99.90
2018-02-06T01:00:22.989Z,99.90
2018-02-06T01:02:52.478Z,99.90
2018-02-06T01:05:21.725Z,99.90
2018-02-06T01:07:51.987Z,99.90
2018-02-06T01:10:21.927Z,99.90
2018-02-06T01:12:52.061Z,99.90
2018-02-06T01:15:21.093Z,99.90
2018-02-06T01:17:50.787Z,99.90
2018-02-06T01:20:20.654Z,99.90
2018-02-06T01:22:49.392Z,99.90
2018-02-06T01:25:19.099Z,99.90
2018-02-06T01:27:49.224Z,99.90
2018-02-06T01:30:18.523Z,99.90
2018-02-06T01:32:47.407Z,99.90
2018-02-06T01:35:16.446Z,99.90
2018-02-06T01:37:45.557Z,99.90
2018-02-06T01:40:14.385Z,99.90
2018-02-06T01:42:43.289Z,99.90
2018-02-06T01:45:12.650Z,99.90
2018-02-06T01:47:41.674Z,99.90
2018-02-06T01:50:11.147Z,99.90
2018-02-06T01:52:39.975Z,99.90
2018-02-06T01:55:09.254Z,99.90
2018-02-06T01:57:38.102Z,99.90
2018-02-06T02:00:07.787Z,99.90
2018-02-06T02:02:36.561Z,99.90
2018-02-06T02:05:05.249Z,99.90
2018-02-06T02:07:34.086Z,99.90
2018-02-06T02:10:03.128Z,99.90
2018-02-06T02:12:32.183Z,99.90
2018-02-06T02:15:01.230Z,99.90
2018-02-06T02:17:30.170Z,99.90
2018-02-06T02:19:59.154Z,99.90
2018-02-06T02:22:27.991Z,99.90
2018-02-06T02:24:57.457Z,99.90
2018-02-06T02:27:26.799Z,99.90
2018-02-06T02:29:56.087Z,99.90
2018-02-06T02:32:26.082Z,99.90
2018-02-06T02:34:55.221Z,99.90
2018-02-06T02:37:24.101Z,99.90
2018-02-06T02:39:53.811Z,99.90
2018-02-06T04:39:07.853Z,99.90
2018-02-06T04:41:36.538Z,99.90
2018-02-06T04:44:05.373Z,99.90
2018-02-06T04:46:34.319Z,99.90
2018-02-06T04:49:03.208Z,99.90
2018-02-06T04:51:32.820Z,99.90
2018-02-06T04:54:01.580Z,99.90
2018-02-06T04:56:31.257Z,99.90
2018-02-06T04:59:01.167Z,99.90
2018-02-06T05:01:30.788Z,99.90
2018-02-06T05:04:00.447Z,99.90
2018-02-06T05:06:29.767Z,99.90
2018-02-06T05:08:58.432Z,99.90
2018-02-06T05:11:27.733Z,99.90
2018-02-06T05:13:56.498Z,99.90
2018-02-06T05:16:25.619Z,99.90
2018-02-06T05:18:55.532Z,99.90
2018-02-06T05:21:24.528Z,99.90
2018-02-06T05:23:53.421Z,99.90
2018-02-06T05:26:23.026Z,99.90
2018-02-06T05:28:52.951Z,99.60
2018-02-06T05:31:21.728Z,99.70
2018-02-06T05:33:50.349Z,99.60
2018-02-06T05:36:19.101Z,99.80
2018-02-06T05:38:47.991Z,99.60
2018-02-06T05:41:16.779Z,99.70
2018-02-06T05:43:45.670Z,99.80
2018-02-06T05:46:14.564Z,99.60
2018-02-06T05:48:43.627Z,99.70
2018-02-06T05:51:12.756Z,99.70
2018-02-06T05:53:42.565Z,99.70
2018-02-06T05:56:12.017Z,99.50
2018-02-06T05:58:42.192Z,99.70
2018-02-06T06:01:12.015Z,99.60
2018-02-06T06:03:40.690Z,99.50
2018-02-06T06:06:09.422Z,99.50
2018-02-06T06:08:38.165Z,99.70
2018-02-06T06:11:07.264Z,99.90
2018-02-06T06:13:36.972Z,99.70
2018-02-06T06:16:05.821Z,99.90
2018-02-06T06:18:35.573Z,99.90
2018-02-06T06:21:04.773Z,99.90
2018-02-06T06:23:34.275Z,99.90
2018-02-06T06:26:03.378Z,99.90
2018-02-06T06:28:32.669Z,99.90
2018-02-06T06:31:01.360Z,99.90
2018-02-06T06:33:31.074Z,99.90
2018-02-06T06:35:59.959Z,99.90
2018-02-06T06:38:29.225Z,99.90
2018-02-06T06:40:58.308Z,99.90
2018-02-06T06:43:27.555Z,99.90
2018-02-06T06:45:56.753Z,99.90
2018-02-06T06:48:26.465Z,99.90
2018-02-06T06:50:55.372Z,99.90
2018-02-06T06:53:24.806Z,99.90
2018-02-06T06:55:53.493Z,99.90
2018-02-06T06:58:22.390Z,99.90
2018-02-06T07:00:51.721Z,99.90
2018-02-06T07:03:20.952Z,99.90
2018-02-06T07:05:49.724Z,99.90
2018-02-06T07:08:18.422Z,99.90
2018-02-06T07:10:48.130Z,99.90
2018-02-06T07:13:17.202Z,99.90
2018-02-06T07:15:46.722Z,99.90
2018-02-06T07:18:15.400Z,99.90
2018-02-06T07:20:44.606Z,99.90
2018-02-06T07:23:13.913Z,99.90
2018-02-06T07:25:42.797Z,99.90
2018-02-06T07:28:12.509Z,99.90
2018-02-06T07:30:42.020Z,99.90
2018-02-06T07:33:10.909Z,99.90
2018-02-06T07:35:39.797Z,99.90
2018-02-06T07:38:09.311Z,99.90
2018-02-06T07:40:37.888Z,99.90
2018-02-06T07:43:06.677Z,99.90
2018-02-06T07:45:35.976Z,99.90
2018-02-06T07:48:05.484Z,99.90
2018-02-06T07:50:34.585Z,99.90
2018-02-06T07:53:03.267Z,99.90
2018-02-06T07:55:33.128Z,99.90
2018-02-06T07:58:02.691Z,99.90
2018-02-06T08:00:31.480Z,99.90
2018-02-06T08:03:01.079Z,99.90
2018-02-06T08:05:30.388Z,99.90
2018-02-06T08:08:00.089Z,99.90
2018-02-06T08:10:29.857Z,99.90
2018-02-06T08:12:58.843Z,99.90
2018-02-06T08:15:28.506Z,99.90
2018-02-06T08:17:57.399Z,99.90
2018-02-06T08:20:26.597Z,99.90
2018-02-06T08:22:55.690Z,99.90
2018-02-06T08:25:24.786Z,99.70
2018-02-06T08:27:53.888Z,99.70
2018-02-06T08:30:22.774Z,98.80
2018-02-06T08:32:51.844Z,99.20
2018-02-06T08:35:20.764Z,99.40
2018-02-06T08:37:51.810Z,99.20
2018-02-06T08:40:21.204Z,99.10
2018-02-06T08:42:50.506Z,99.80
2018-02-06T08:45:20.116Z,99.70
2018-02-06T08:47:49.567Z,98.90
2018-02-06T08:50:19.839Z,99.50
2018-02-06T08:52:49.437Z,98.90
2018-02-06T08:55:19.158Z,98.80
2018-02-06T08:57:48.486Z,98.50
2018-02-06T09:00:17.981Z,98.20
2018-02-06T09:02:47.685Z,97.80
2018-02-06T09:05:16.980Z,98.10
2018-02-06T09:07:47.301Z,97.70
2018-02-06T09:10:16.812Z,96.90
2018-02-06T09:12:46.313Z,97.00
2018-02-06T09:15:15.202Z,97.50
2018-02-06T09:17:43.995Z,97.90
2018-02-06T09:20:13.290Z,97.70
2018-02-06T09:22:42.180Z,97.70
2018-02-06T09:25:11.071Z,97.10
2018-02-06T09:27:39.755Z,97.10
2018-02-06T09:30:09.064Z,97.00
2018-02-06T09:32:37.746Z,95.70
2018-02-06T09:35:07.350Z,96.00
2018-02-06T09:37:36.952Z,96.40
2018-02-06T09:40:06.368Z,95.70
2018-02-06T09:42:35.663Z,95.30
2018-02-06T09:45:04.575Z,96.00
2018-02-06T09:47:33.649Z,95.70
2018-02-06T09:50:03.161Z,95.90
2018-02-06T09:52:33.171Z,95.90
2018-02-06T09:55:02.778Z,95.60
2018-02-06T09:57:32.488Z,95.60
2018-02-06T10:00:01.997Z,94.80
2018-02-06T10:02:31.440Z,94.80
2018-02-06T10:05:01.011Z,93.90
2018-02-06T10:07:29.700Z,93.60
2018-02-06T10:09:58.385Z,93.50
2018-02-06T10:12:28.089Z,94.20
2018-02-06T10:14:57.193Z,93.10
2018-02-06T10:17:26.281Z,93.40
2018-02-06T10:19:55.785Z,93.30
2018-02-06T10:22:25.085Z,93.50
2018-02-06T10:24:54.592Z,93.50
2018-02-06T10:27:23.470Z,92.10
2018-02-06T10:29:52.787Z,91.80
2018-02-06T10:32:22.289Z,93.20
2018-02-06T10:34:52.101Z,92.70
2018-02-06T10:37:21.606Z,92.00
2018-02-06T10:39:50.977Z,91.90
2018-02-06T10:42:20.109Z,92.10
2018-02-06T10:44:48.792Z,92.40
2018-02-06T10:47:18.302Z,92.00
2018-02-06T10:49:47.804Z,92.00
2018-02-06T10:52:16.489Z,91.50
2018-02-06T10:54:45.996Z,92.10
2018-02-06T10:57:15.300Z,92.90
2018-02-06T10:59:44.803Z,92.10
2018-02-06T11:02:13.690Z,92.00
2018-02-06T11:04:42.785Z,92.20
2018-02-06T11:07:12.496Z,91.60
2018-02-06T11:09:41.400Z,92.00
2018-02-06T11:12:10.892Z,92.00
2018-02-06T11:14:40.406Z,92.10
2018-02-06T11:17:10.121Z,92.00
2018-02-06T11:19:39.307Z,92.50
2018-02-06T11:22:08.000Z,92.00
2018-02-06T11:24:37.092Z,91.90
2018-02-06T11:27:06.334Z,91.10
2018-02-06T11:29:35.557Z,91.30
2018-02-06T11:32:04.786Z,90.90
2018-02-06T11:34:33.989Z,91.00
2018-02-06T11:37:03.594Z,90.90
2018-02-06T11:39:33.096Z,91.40
2018-02-06T11:42:03.606Z,91.60
2018-02-06T11:44:33.135Z,91.10
2018-02-06T11:47:03.566Z,91.50
2018-02-06T11:49:33.317Z,92.50
2018-02-06T11:52:03.697Z,93.70
2018-02-06T11:54:33.412Z,92.30
2018-02-06T11:57:02.795Z,92.30
2018-02-06T11:59:32.832Z,92.90
2018-02-06T12:02:02.888Z,92.30
2018-02-06T12:04:32.049Z,92.30
2018-02-06T12:07:00.878Z,92.40
2018-02-06T12:09:30.445Z,92.00
2018-02-06T12:11:59.124Z,92.30
2018-02-06T12:14:28.637Z,92.70
2018-02-06T12:16:57.319Z,92.70
2018-02-06T12:19:26.416Z,92.40
2018-02-06T12:21:55.712Z,92.50
2018-02-06T12:24:24.401Z,93.00
2018-02-06T12:26:53.494Z,92.40
2018-02-06T12:29:23.004Z,92.00
2018-02-06T12:31:52.126Z,91.90
2018-02-06T12:34:21.200Z,91.40
2018-02-06T12:36:51.258Z,91.50
2018-02-06T12:39:20.342Z,91.80
2018-02-06T12:41:51.021Z,91.20
2018-02-06T12:44:20.797Z,91.30
2018-02-06T12:46:50.658Z,90.80
2018-02-06T12:49:20.403Z,91.10
2018-02-06T12:51:50.572Z,91.00
2018-02-06T12:54:19.549Z,90.30
2018-02-06T12:56:48.767Z,90.60
2018-02-06T12:59:18.505Z,90.50
2018-02-06T13:01:47.202Z,90.50
2018-02-06T13:04:16.695Z,90.40
2018-02-06T13:06:45.591Z,90.80
2018-02-06T13:09:16.699Z,90.40
2018-02-06T13:11:46.144Z,90.60
2018-02-06T13:14:15.734Z,90.50
2018-02-06T13:16:45.037Z,89.80
2018-02-06T13:19:14.293Z,90.20
2018-02-06T13:21:43.844Z,90.10
2018-02-06T13:24:12.938Z,89.90
2018-02-06T13:26:42.442Z,90.00
2018-02-06T13:29:12.361Z,89.50
2018-02-06T13:31:41.863Z,90.10
2018-02-06T13:34:10.537Z,89.80
2018-02-06T13:36:40.362Z,90.10
2018-02-06T13:39:10.073Z,89.20
2018-02-06T13:41:39.542Z,89.50
2018-02-06T13:44:08.979Z,89.60
2018-02-06T13:46:38.084Z,89.90
2018-02-06T13:49:07.597Z,90.20
2018-02-06T13:51:37.087Z,90.00
2018-02-06T13:54:06.800Z,90.10
2018-02-06T13:56:36.713Z,89.80
2018-02-06T13:59:05.812Z,89.70
2018-02-06T14:01:34.702Z,89.20
2018-02-06T14:04:05.431Z,88.90
2018-02-06T14:06:35.067Z,89.10
2018-02-06T14:09:05.365Z,87.90
2018-02-06T14:11:34.672Z,86.80
2018-02-06T14:14:03.724Z,86.50
2018-02-06T14:16:32.857Z,87.00
2018-02-06T14:19:02.364Z,85.00
2018-02-06T14:21:31.254Z,85.10
2018-02-06T14:24:01.026Z,84.30
2018-02-06T14:26:30.469Z,83.50
2018-02-06T14:28:59.774Z,83.70
2018-02-06T14:31:28.663Z,83.30
2018-02-06T14:33:57.346Z,83.20
2018-02-06T14:36:26.042Z,84.50
2018-02-06T14:38:54.927Z,83.20
2018-02-06T14:41:24.225Z,81.90
2018-02-06T14:43:53.937Z,82.30
2018-02-06T14:46:23.035Z,82.40
2018-02-06T14:48:52.543Z,82.30
2018-02-06T14:51:22.248Z,81.90
2018-02-06T14:53:51.762Z,81.20
2018-02-06T14:56:20.853Z,81.40
2018-02-06T14:58:49.534Z,81.80
2018-02-06T15:01:19.039Z,80.30
2018-02-06T15:03:47.725Z,79.50
2018-02-06T15:06:16.416Z,79.60
2018-02-06T15:08:47.148Z,80.40
2018-02-06T15:11:16.808Z,80.60
2018-02-06T15:13:46.774Z,80.80
2018-02-06T15:16:16.432Z,80.30
2018-02-06T15:18:46.196Z,80.50
2018-02-06T15:21:15.084Z,80.60
2018-02-06T15:23:43.972Z,81.90
2018-02-06T15:26:13.480Z,80.90
2018-02-06T15:28:43.188Z,81.70
2018-02-06T15:31:11.875Z,82.10
2018-02-06T15:33:40.770Z,81.60
2018-02-06T15:36:09.671Z,81.90
2018-02-06T15:38:38.554Z,82.50
2018-02-06T15:41:07.234Z,81.50
2018-02-06T15:43:36.887Z,81.60
2018-02-06T15:46:06.059Z,81.40
2018-02-06T15:48:37.388Z,82.00
2018-02-06T15:51:06.229Z,82.30
2018-02-06T15:53:35.785Z,82.80
2018-02-06T15:56:05.649Z,82.30
2018-02-06T15:58:35.249Z,81.30
2018-02-06T16:01:08.807Z,81.10
2018-02-06T16:03:38.313Z,82.10
2018-02-06T16:06:07.612Z,82.30
2018-02-06T16:08:37.123Z,81.60
2018-02-06T16:11:07.238Z,83.10
2018-02-06T16:13:35.818Z,81.50
2018-02-06T16:16:04.710Z,81.80
2018-02-06T16:18:34.526Z,82.70
2018-02-06T16:21:03.216Z,81.10
2018-02-06T16:23:32.723Z,80.60
2018-02-06T16:26:02.004Z,81.10
2018-02-06T16:28:30.714Z,81.50
2018-02-06T16:31:00.210Z,80.40
2018-02-06T16:33:29.725Z,78.50
2018-02-06T16:35:58.405Z,79.40
2018-02-06T16:38:28.221Z,80.70
2018-02-06T16:40:57.362Z,80.90
2018-02-06T16:43:26.308Z,81.30
2018-02-06T16:45:56.014Z,81.10
2018-02-06T16:48:25.113Z,81.50
2018-02-06T16:50:54.820Z,80.80
2018-02-06T16:53:24.268Z,81.40
2018-02-06T16:55:53.625Z,81.60
2018-02-06T16:58:22.823Z,81.70
2018-02-06T17:00:52.431Z,83.00
2018-02-06T17:03:21.731Z,83.80
2018-02-06T17:05:51.244Z,83.30
2018-02-06T17:08:21.768Z,83.40
2018-02-06T17:10:50.453Z,83.70
2018-02-06T17:13:19.961Z,84.00
2018-02-06T17:15:48.963Z,84.70
2018-02-06T17:18:18.352Z,83.00
2018-02-06T17:20:47.452Z,83.00
2018-02-06T17:23:16.955Z,82.90
2018-02-06T17:25:46.051Z,83.10
2018-02-06T17:28:15.984Z,82.40
2018-02-06T17:30:44.863Z,82.60
2018-02-06T17:33:13.857Z,83.10
2018-02-06T17:35:43.252Z,82.40
2018-02-06T17:38:12.769Z,82.60
2018-02-06T17:40:42.264Z,83.70
2018-02-06T17:43:11.774Z,83.60
2018-02-06T17:45:40.659Z,87.00
2018-02-06T17:48:09.294Z,89.90
2018-02-06T17:50:38.033Z,90.40
2018-02-06T17:53:07.293Z,90.40
2018-02-06T17:55:36.844Z,90.30
2018-02-06T17:58:06.142Z,90.60
2018-02-06T18:00:35.030Z,90.50
2018-02-06T18:03:03.742Z,91.20
2018-02-06T18:05:32.816Z,91.80
2018-02-06T18:08:02.111Z,92.00
2018-02-06T18:10:31.012Z,92.20
2018-02-06T18:13:00.303Z,92.50
2018-02-06T18:15:29.057Z,92.90
2018-02-06T18:17:58.448Z,93.00
2018-02-06T18:20:27.342Z,92.90
2018-02-06T18:22:57.512Z,93.00
2018-02-06T18:25:26.220Z,93.10
2018-02-06T18:27:55.491Z,92.90
2018-02-06T18:30:24.793Z,93.10
2018-02-06T18:32:53.690Z,93.20
2018-02-06T18:35:23.195Z,93.00
2018-02-06T18:37:52.901Z,93.40
2018-02-06T18:40:22.409Z,93.20
2018-02-06T18:42:52.151Z,93.40
2018-02-06T18:45:20.840Z,93.20
2018-02-06T18:47:50.469Z,93.20
2018-02-06T18:50:20.284Z,93.40
2018-02-06T18:52:49.689Z,93.40
2018-02-06T18:55:18.719Z,93.60
2018-02-06T18:57:48.493Z,93.60
2018-02-06T19:00:19.169Z,93.40
2018-02-06T19:02:48.469Z,93.40
2018-02-06T19:05:18.384Z,93.40
2018-02-06T19:07:48.064Z,93.20
2018-02-06T19:10:17.860Z,93.10
2018-02-06T19:12:47.067Z,93.10
2018-02-06T19:15:16.971Z,93.00
2018-02-06T19:17:46.447Z,93.10
2018-02-06T19:20:16.067Z,93.60
2018-02-06T19:22:45.429Z,93.60
2018-02-06T19:25:15.085Z,93.60
2018-02-06T19:27:43.881Z,93.60
2018-02-06T19:30:13.485Z,93.70
2018-02-06T19:32:43.920Z,93.90
2018-02-06T19:35:13.492Z,93.30
2018-02-06T19:37:43.388Z,93.10
2018-02-06T19:40:13.096Z,93.10
2018-02-06T19:42:42.396Z,92.80
2018-02-06T19:45:11.293Z,93.00
2018-02-06T19:47:41.204Z,93.10
2018-02-06T19:50:10.092Z,93.00
2018-02-06T19:52:39.585Z,92.80
2018-02-06T19:55:11.717Z,92.60
2018-02-06T19:57:40.970Z,92.60
2018-02-06T20:00:11.157Z,93.50
2018-02-06T20:02:40.673Z,93.20
2018-02-06T20:05:11.230Z,93.30
2018-02-06T20:07:40.933Z,93.20
2018-02-06T20:10:11.049Z,93.20
2018-02-06T20:12:40.556Z,93.00
2018-02-06T20:15:09.451Z,92.90
2018-02-06T20:17:38.633Z,93.00
2018-02-06T20:20:08.661Z,93.20
2018-02-06T20:22:37.965Z,93.20
2018-02-06T20:25:07.327Z,93.20
2018-02-06T20:27:36.730Z,93.30
2018-02-06T20:30:05.407Z,93.00
2018-02-06T20:32:34.468Z,92.90
2018-02-06T20:35:03.557Z,92.70
2018-02-06T20:37:32.961Z,92.70
2018-02-06T20:40:02.254Z,92.20
2018-02-06T20:42:31.833Z,92.20
2018-02-06T20:45:01.374Z,92.70
2018-02-06T20:47:30.587Z,92.50
2018-02-06T20:50:00.389Z,92.30
2018-02-06T20:52:30.486Z,92.40
2018-02-06T20:54:59.796Z,92.00
2018-02-06T20:57:28.841Z,92.20
2018-02-06T20:59:58.596Z,92.40
2018-02-06T21:02:28.193Z,92.10
2018-02-06T21:04:57.607Z,92.00
2018-02-06T21:07:27.219Z,91.60
2018-02-06T21:09:56.214Z,91.70
2018-02-06T21:12:25.618Z,91.20
2018-02-06T21:14:55.497Z,91.30
2018-02-06T21:17:24.953Z,91.60
2018-02-06T21:19:54.035Z,91.70
2018-02-06T21:22:23.124Z,91.10
2018-02-06T21:24:52.122Z,91.30
2018-02-06T21:27:21.580Z,91.50
2018-02-06T21:29:52.710Z,91.40
2018-02-06T21:32:22.477Z,91.50
2018-02-06T21:34:51.366Z,91.40
2018-02-06T21:37:20.859Z,91.20
2018-02-06T21:39:49.955Z,91.10
2018-02-06T21:42:18.869Z,91.00
2018-02-06T21:44:47.631Z,91.00
2018-02-06T21:47:16.367Z,90.80
2018-02-06T21:49:45.851Z,91.30
2018-02-06T21:52:15.693Z,91.10
2018-02-06T21:54:45.066Z,91.10
2018-02-06T21:57:17.221Z,91.30
2018-02-06T21:59:46.626Z,90.70
2018-02-06T22:02:16.815Z,91.10
2018-02-06T22:04:46.219Z,91.10
2018-02-06T22:07:15.707Z,90.80
2018-02-06T22:09:45.059Z,90.70
2018-02-06T22:12:14.151Z,90.70
2018-02-06T22:14:43.196Z,90.60
2018-02-06T22:17:13.491Z,90.40
2018-02-06T22:19:42.660Z,90.50
2018-02-06T22:22:11.782Z,89.70
2018-02-06T22:24:40.611Z,89.80
2018-02-06T22:27:09.539Z,90.20
2018-02-06T22:29:39.189Z,90.20
2018-02-06T22:32:08.220Z,90.40
2018-02-06T22:34:37.756Z,90.60
2018-02-06T22:37:06.850Z,90.40
2018-02-06T22:39:36.727Z,90.10
2018-02-06T22:42:06.169Z,90.20
2018-02-06T22:44:35.846Z,90.20
2018-02-06T22:47:05.772Z,90.00
2018-02-06T22:49:35.403Z,90.00
2018-02-06T22:52:04.893Z,89.70
2018-02-06T22:54:34.414Z,89.60
2018-02-06T22:57:03.310Z,89.60
2018-02-06T22:59:32.709Z,89.80
2018-02-06T23:02:02.419Z,89.10
2018-02-06T23:04:31.411Z,89.20
2018-02-06T23:07:00.716Z,89.30
2018-02-06T23:09:30.233Z,89.70
2018-02-06T23:11:59.812Z,89.30
2018-02-06T23:14:29.467Z,88.50
2018-02-06T23:16:58.632Z,88.30
2018-02-06T23:19:27.726Z,88.80
2018-02-06T23:21:56.412Z,88.30
2018-02-06T23:24:26.121Z,88.60
2018-02-06T23:26:56.007Z,88.60
2018-02-06T23:29:25.239Z,88.70
2018-02-06T23:31:54.086Z,88.80
2018-02-06T23:34:23.429Z,88.50
2018-02-06T23:36:53.172Z,88.20
2018-02-06T23:39:23.674Z,89.20
2018-02-06T23:41:52.573Z,89.50
2018-02-06T23:44:21.861Z,89.00
2018-02-06T23:46:51.593Z,90.20
2018-02-06T23:49:21.281Z,90.00
2018-02-06T23:51:50.239Z,90.10
2018-02-06T23:54:19.066Z,90.00
2018-02-06T23:56:48.156Z,90.40
2018-02-06T23:59:17.330Z,90.20
